sensor_id;sensor_type;location;lat;lon;timestamp;temperature;humidity
12504;DHT22;6316;48.118;-1.690;2023-04-03T00:00:42;7.50;99.90
12504;DHT22;6316;48.118;-1.690;2023-04-03T00:03:08;7.50;99.90
12504;DHT22;6316;48.118;-1.690;2023-04-03T00:05:34;7.50;99.90
12504;DHT22;6316;48.118;-1.690;2023-04-03T00:07:59;7.40;99.90
12504;DHT22;6316;48.118;-1.690;2023-04-03T00:10:27;7.40;99.90
12504;DHT22;6316;48.118;-1.690;2023-04-03T00:12:53;7.40;99.90
12504;DHT22;6316;48.118;-1.690;2023-04-03T00:15:19;7.40;99.90
12504;DHT22;6316;48.118;-1.690;2023-04-03T00:17:45;7.30;99.90
12504;DHT22;6316;48.118;-1.690;2023-04-03T00:20:11;7.30;99.90
12504;DHT22;6316;48.118;-1.690;2023-04-03T00:22:36;7.30;99.90
12504;DHT22;6316;48.118;-1.690;2023-04-03T00:25:03;7.30;99.90
12504;DHT22;6316;48.118;-1.690;2023-04-03T00:27:29;7.20;99.90
12504;DHT22;6316;48.118;-1.690;2023-04-03T00:29:55;7.20;99.90
12504;DHT22;6316;48.118;-1.690;2023-04-03T00:32:20;7.20;99.90
12504;DHT22;6316;48.118;-1.690;2023-04-03T00:34:46;7.20;99.90
12504;DHT22;6316;48.118;-1.690;2023-04-03T00:37:12;7.20;99.90
12504;DHT22;6316;48.118;-1.690;2023-04-03T00:39:37;7.10;99.90
12504;DHT22;6316;48.118;-1.690;2023-04-03T00:42:03;7.10;99.90
12504;DHT22;6316;48.118;-1.690;2023-04-03T00:47:02;7.00;99.90
12504;DHT22;6316;48.118;-1.690;2023-04-03T00:49:29;7.00;99.90
12504;DHT22;6316;48.118;-1.690;2023-04-03T00:51:55;7.00;99.90
12504;DHT22;6316;48.118;-1.690;2023-04-03T00:54:22;7.00;99.90
12504;DHT22;6316;48.118;-1.690;2023-04-03T00:56:50;6.90;99.90
12504;DHT22;6316;48.118;-1.690;2023-04-03T00:59:22;6.90;99.90
12504;DHT22;6316;48.118;-1.690;2023-04-03T01:01:52;6.90;99.90
12504;DHT22;6316;48.118;-1.690;2023-04-03T01:06:55;6.90;99.90
12504;DHT22;6316;48.118;-1.690;2023-04-03T01:09:21;6.80;99.90
12504;DHT22;6316;48.118;-1.690;2023-04-03T01:11:48;6.80;99.90
12504;DHT22;6316;48.118;-1.690;2023-04-03T01:14:13;6.80;99.90
12504;DHT22;6316;48.118;-1.690;2023-04-03T01:16:39;6.70;99.90
12504;DHT22;6316;48.118;-1.690;2023-04-03T01:19:10;6.70;99.90
12504;DHT22;6316;48.118;-1.690;2023-04-03T01:24:33;6.70;99.90
12504;DHT22;6316;48.118;-1.690;2023-04-03T01:27:00;6.70;99.90
12504;DHT22;6316;48.118;-1.690;2023-04-03T01:29:26;6.60;99.90
12504;DHT22;6316;48.118;-1.690;2023-04-03T01:31:55;6.60;99.90
12504;DHT22;6316;48.118;-1.690;2023-04-03T01:34:22;6.50;99.90
12504;DHT22;6316;48.118;-1.690;2023-04-03T01:36:48;6.50;99.90
12504;DHT22;6316;48.118;-1.690;2023-04-03T01:39:14;6.50;99.90
12504;DHT22;6316;48.118;-1.690;2023-04-03T01:41:39;6.50;99.90
12504;DHT22;6316;48.118;-1.690;2023-04-03T01:44:05;6.50;99.90
12504;DHT22;6316;48.118;-1.690;2023-04-03T01:46:31;6.50;99.90
12504;DHT22;6316;48.118;-1.690;2023-04-03T01:48:57;6.40;99.90
12504;DHT22;6316;48.118;-1.690;2023-04-03T01:51:22;6.40;99.90
12504;DHT22;6316;48.118;-1.690;2023-04-03T01:53:48;6.40;99.90
12504;DHT22;6316;48.118;-1.690;2023-04-03T01:56:13;6.40;99.90
12504;DHT22;6316;48.118;-1.690;2023-04-03T01:58:39;6.40;99.90
12504;DHT22;6316;48.118;-1.690;2023-04-03T02:01:05;6.40;99.90
12504;DHT22;6316;48.118;-1.690;2023-04-03T02:03:31;6.40;99.90
12504;DHT22;6316;48.118;-1.690;2023-04-03T02:05:57;6.40;99.90
12504;DHT22;6316;48.118;-1.690;2023-04-03T02:08:23;6.40;99.90
12504;DHT22;6316;48.118;-1.690;2023-04-03T02:10:49;6.40;99.90
12504;DHT22;6316;48.118;-1.690;2023-04-03T02:13:16;6.40;99.90
12504;DHT22;6316;48.118;-1.690;2023-04-03T02:15:42;6.40;99.90
12504;DHT22;6316;48.118;-1.690;2023-04-03T02:18:08;6.40;99.90
12504;DHT22;6316;48.118;-1.690;2023-04-03T02:20:34;6.40;99.90
12504;DHT22;6316;48.118;-1.690;2023-04-03T02:23:00;6.40;99.90
12504;DHT22;6316;48.118;-1.690;2023-04-03T02:25:26;6.40;99.90
12504;DHT22;6316;48.118;-1.690;2023-04-03T02:27:51;6.40;99.90
12504;DHT22;6316;48.118;-1.690;2023-04-03T02:30:17;6.40;99.90
12504;DHT22;6316;48.118;-1.690;2023-04-03T02:32:43;6.30;99.90
12504;DHT22;6316;48.118;-1.690;2023-04-03T02:35:10;6.30;99.90
12504;DHT22;6316;48.118;-1.690;2023-04-03T02:37:36;6.30;99.90
12504;DHT22;6316;48.118;-1.690;2023-04-03T02:40:02;6.30;99.90
12504;DHT22;6316;48.118;-1.690;2023-04-03T02:42:28;6.20;99.90
12504;DHT22;6316;48.118;-1.690;2023-04-03T02:44:53;6.20;99.90
12504;DHT22;6316;48.118;-1.690;2023-04-03T02:47:19;6.20;99.90
12504;DHT22;6316;48.118;-1.690;2023-04-03T02:49:45;6.20;99.90
12504;DHT22;6316;48.118;-1.690;2023-04-03T02:52:14;6.20;99.90
12504;DHT22;6316;48.118;-1.690;2023-04-03T02:54:40;6.20;99.90
12504;DHT22;6316;48.118;-1.690;2023-04-03T02:57:06;6.20;99.90
12504;DHT22;6316;48.118;-1.690;2023-04-03T02:59:37;6.20;99.90
12504;DHT22;6316;48.118;-1.690;2023-04-03T03:02:06;6.20;99.90
12504;DHT22;6316;48.118;-1.690;2023-04-03T03:04:33;6.10;99.90
12504;DHT22;6316;48.118;-1.690;2023-04-03T03:06:58;6.10;99.90
12504;DHT22;6316;48.118;-1.690;2023-04-03T03:09:24;6.20;99.90
12504;DHT22;6316;48.118;-1.690;2023-04-03T03:11:51;6.20;99.90
12504;DHT22;6316;48.118;-1.690;2023-04-03T03:14:16;6.20;99.90
12504;DHT22;6316;48.118;-1.690;2023-04-03T03:16:42;6.20;99.90
12504;DHT22;6316;48.118;-1.690;2023-04-03T03:19:08;6.20;99.90
12504;DHT22;6316;48.118;-1.690;2023-04-03T03:21:33;6.20;99.90
12504;DHT22;6316;48.118;-1.690;2023-04-03T03:23:59;6.20;99.90
12504;DHT22;6316;48.118;-1.690;2023-04-03T03:26:25;6.20;99.90
12504;DHT22;6316;48.118;-1.690;2023-04-03T03:28:51;6.20;99.90
12504;DHT22;6316;48.118;-1.690;2023-04-03T03:31:16;6.20;99.90
12504;DHT22;6316;48.118;-1.690;2023-04-03T03:33:42;6.20;99.90
12504;DHT22;6316;48.118;-1.690;2023-04-03T03:36:07;6.10;99.90
12504;DHT22;6316;48.118;-1.690;2023-04-03T03:38:33;6.10;99.90
12504;DHT22;6316;48.118;-1.690;2023-04-03T03:40:59;6.00;99.90
12504;DHT22;6316;48.118;-1.690;2023-04-03T03:43:25;6.00;99.90
12504;DHT22;6316;48.118;-1.690;2023-04-03T03:45:52;5.90;99.90
12504;DHT22;6316;48.118;-1.690;2023-04-03T03:48:18;5.90;99.90
12504;DHT22;6316;48.118;-1.690;2023-04-03T03:50:44;5.80;99.90
12504;DHT22;6316;48.118;-1.690;2023-04-03T03:53:10;5.80;99.90
12504;DHT22;6316;48.118;-1.690;2023-04-03T03:55:35;5.70;99.90
12504;DHT22;6316;48.118;-1.690;2023-04-03T03:58:01;5.70;99.90
12504;DHT22;6316;48.118;-1.690;2023-04-03T04:00:27;5.60;99.90
12504;DHT22;6316;48.118;-1.690;2023-04-03T04:02:53;5.60;99.90
12504;DHT22;6316;48.118;-1.690;2023-04-03T04:05:18;5.50;99.90
12504;DHT22;6316;48.118;-1.690;2023-04-03T04:07:44;5.50;99.90
12504;DHT22;6316;48.118;-1.690;2023-04-03T04:10:10;5.50;99.90
12504;DHT22;6316;48.118;-1.690;2023-04-03T04:12:35;5.40;99.90
12504;DHT22;6316;48.118;-1.690;2023-04-03T04:15:02;5.40;99.90
12504;DHT22;6316;48.118;-1.690;2023-04-03T04:17:28;5.40;99.90
12504;DHT22;6316;48.118;-1.690;2023-04-03T04:19:53;5.30;99.90
12504;DHT22;6316;48.118;-1.690;2023-04-03T04:22:19;5.30;99.90
12504;DHT22;6316;48.118;-1.690;2023-04-03T04:24:44;5.30;99.90
12504;DHT22;6316;48.118;-1.690;2023-04-03T04:27:10;5.30;99.90
12504;DHT22;6316;48.118;-1.690;2023-04-03T04:29:36;5.20;99.90
12504;DHT22;6316;48.118;-1.690;2023-04-03T04:32:03;5.20;99.90
12504;DHT22;6316;48.118;-1.690;2023-04-03T04:34:29;5.30;99.90
12504;DHT22;6316;48.118;-1.690;2023-04-03T04:36:55;5.30;99.90
12504;DHT22;6316;48.118;-1.690;2023-04-03T04:39:21;5.30;99.90
12504;DHT22;6316;48.118;-1.690;2023-04-03T04:41:46;5.30;99.90
12504;DHT22;6316;48.118;-1.690;2023-04-03T04:44:12;5.30;99.90
12504;DHT22;6316;48.118;-1.690;2023-04-03T04:46:38;5.30;99.90
12504;DHT22;6316;48.118;-1.690;2023-04-03T04:49:03;5.30;99.90
12504;DHT22;6316;48.118;-1.690;2023-04-03T04:51:29;5.30;99.90
12504;DHT22;6316;48.118;-1.690;2023-04-03T04:53:55;5.30;99.90
12504;DHT22;6316;48.118;-1.690;2023-04-03T04:56:20;5.30;99.90
12504;DHT22;6316;48.118;-1.690;2023-04-03T04:58:46;5.40;99.90
12504;DHT22;6316;48.118;-1.690;2023-04-03T05:01:12;5.40;99.90
12504;DHT22;6316;48.118;-1.690;2023-04-03T05:03:37;5.40;99.90
12504;DHT22;6316;48.118;-1.690;2023-04-03T05:06:03;5.40;99.90
12504;DHT22;6316;48.118;-1.690;2023-04-03T05:08:29;5.40;99.90
12504;DHT22;6316;48.118;-1.690;2023-04-03T05:10:55;5.40;99.90
12504;DHT22;6316;48.118;-1.690;2023-04-03T05:13:20;5.40;99.90
12504;DHT22;6316;48.118;-1.690;2023-04-03T05:15:46;5.40;99.90
12504;DHT22;6316;48.118;-1.690;2023-04-03T05:18:12;5.40;99.90
12504;DHT22;6316;48.118;-1.690;2023-04-03T05:20:38;5.40;99.90
12504;DHT22;6316;48.118;-1.690;2023-04-03T05:23:04;5.40;99.90
12504;DHT22;6316;48.118;-1.690;2023-04-03T05:25:30;5.40;99.90
12504;DHT22;6316;48.118;-1.690;2023-04-03T05:27:56;5.40;99.90
12504;DHT22;6316;48.118;-1.690;2023-04-03T05:30:22;5.40;99.90
12504;DHT22;6316;48.118;-1.690;2023-04-03T05:32:48;5.40;99.90
12504;DHT22;6316;48.118;-1.690;2023-04-03T05:35:13;5.40;99.90
12504;DHT22;6316;48.118;-1.690;2023-04-03T05:37:39;5.30;99.90
12504;DHT22;6316;48.118;-1.690;2023-04-03T05:40:06;5.40;99.90
12504;DHT22;6316;48.118;-1.690;2023-04-03T05:42:32;5.40;99.90
12504;DHT22;6316;48.118;-1.690;2023-04-03T05:44:58;5.40;99.90
12504;DHT22;6316;48.118;-1.690;2023-04-03T05:47:24;5.40;99.90
12504;DHT22;6316;48.118;-1.690;2023-04-03T05:49:49;5.40;99.90
12504;DHT22;6316;48.118;-1.690;2023-04-03T05:52:29;5.40;99.90
12504;DHT22;6316;48.118;-1.690;2023-04-03T05:54:55;5.40;99.90
12504;DHT22;6316;48.118;-1.690;2023-04-03T05:57:21;5.40;99.90
12504;DHT22;6316;48.118;-1.690;2023-04-03T05:59:47;5.40;99.90
12504;DHT22;6316;48.118;-1.690;2023-04-03T06:02:15;5.40;99.90
12504;DHT22;6316;48.118;-1.690;2023-04-03T06:04:41;5.40;99.90
12504;DHT22;6316;48.118;-1.690;2023-04-03T06:07:11;5.40;99.90
12504;DHT22;6316;48.118;-1.690;2023-04-03T06:09:37;5.40;99.90
12504;DHT22;6316;48.118;-1.690;2023-04-03T06:12:03;5.40;99.90
12504;DHT22;6316;48.118;-1.690;2023-04-03T06:14:29;5.40;99.90
12504;DHT22;6316;48.118;-1.690;2023-04-03T06:16:54;5.50;99.90
12504;DHT22;6316;48.118;-1.690;2023-04-03T06:19:20;5.50;99.90
12504;DHT22;6316;48.118;-1.690;2023-04-03T06:21:46;5.50;99.90
12504;DHT22;6316;48.118;-1.690;2023-04-03T06:24:15;5.50;99.90
12504;DHT22;6316;48.118;-1.690;2023-04-03T06:26:41;5.60;99.90
12504;DHT22;6316;48.118;-1.690;2023-04-03T06:29:07;5.60;99.90
12504;DHT22;6316;48.118;-1.690;2023-04-03T06:31:32;5.60;99.90
12504;DHT22;6316;48.118;-1.690;2023-04-03T06:33:58;5.60;99.90
12504;DHT22;6316;48.118;-1.690;2023-04-03T06:36:24;5.70;99.90
12504;DHT22;6316;48.118;-1.690;2023-04-03T06:38:50;5.70;99.90
12504;DHT22;6316;48.118;-1.690;2023-04-03T06:41:15;5.80;99.90
12504;DHT22;6316;48.118;-1.690;2023-04-03T06:43:42;5.80;99.90
12504;DHT22;6316;48.118;-1.690;2023-04-03T06:46:14;5.90;99.90
12504;DHT22;6316;48.118;-1.690;2023-04-03T06:48:40;5.90;99.90
12504;DHT22;6316;48.118;-1.690;2023-04-03T06:51:08;5.90;99.90
12504;DHT22;6316;48.118;-1.690;2023-04-03T06:53:35;6.00;99.90
12504;DHT22;6316;48.118;-1.690;2023-04-03T06:56:01;6.00;99.90
12504;DHT22;6316;48.118;-1.690;2023-04-03T06:58:27;6.00;99.90
12504;DHT22;6316;48.118;-1.690;2023-04-03T07:00:53;6.00;99.90
12504;DHT22;6316;48.118;-1.690;2023-04-03T07:03:18;6.10;99.90
12504;DHT22;6316;48.118;-1.690;2023-04-03T07:05:44;6.10;99.90
12504;DHT22;6316;48.118;-1.690;2023-04-03T07:08:10;6.10;99.90
12504;DHT22;6316;48.118;-1.690;2023-04-03T07:10:37;6.10;99.90
12504;DHT22;6316;48.118;-1.690;2023-04-03T07:13:03;6.20;99.90
12504;DHT22;6316;48.118;-1.690;2023-04-03T07:15:29;6.10;99.90
12504;DHT22;6316;48.118;-1.690;2023-04-03T07:17:55;6.20;99.90
12504;DHT22;6316;48.118;-1.690;2023-04-03T07:20:21;6.20;99.90
12504;DHT22;6316;48.118;-1.690;2023-04-03T07:22:46;6.30;99.90
12504;DHT22;6316;48.118;-1.690;2023-04-03T07:25:12;6.30;99.90
12504;DHT22;6316;48.118;-1.690;2023-04-03T07:27:38;6.40;99.90
12504;DHT22;6316;48.118;-1.690;2023-04-03T07:30:03;6.40;99.90
12504;DHT22;6316;48.118;-1.690;2023-04-03T07:32:29;6.50;99.90
12504;DHT22;6316;48.118;-1.690;2023-04-03T07:34:55;6.50;99.90
12504;DHT22;6316;48.118;-1.690;2023-04-03T07:37:20;6.50;99.90
12504;DHT22;6316;48.118;-1.690;2023-04-03T07:39:46;6.50;99.90
12504;DHT22;6316;48.118;-1.690;2023-04-03T07:42:12;6.60;99.90
12504;DHT22;6316;48.118;-1.690;2023-04-03T07:44:38;6.60;99.90
12504;DHT22;6316;48.118;-1.690;2023-04-03T07:47:04;6.60;99.90
12504;DHT22;6316;48.118;-1.690;2023-04-03T07:49:30;6.60;99.90
12504;DHT22;6316;48.118;-1.690;2023-04-03T07:51:55;6.60;99.90
12504;DHT22;6316;48.118;-1.690;2023-04-03T07:54:21;6.70;99.90
12504;DHT22;6316;48.118;-1.690;2023-04-03T07:56:47;6.70;99.90
12504;DHT22;6316;48.118;-1.690;2023-04-03T07:59:13;6.60;99.90
12504;DHT22;6316;48.118;-1.690;2023-04-03T08:01:39;6.70;99.90
12504;DHT22;6316;48.118;-1.690;2023-04-03T08:04:04;6.70;99.90
12504;DHT22;6316;48.118;-1.690;2023-04-03T08:06:32;6.70;99.90
12504;DHT22;6316;48.118;-1.690;2023-04-03T08:09:00;6.70;99.90
12504;DHT22;6316;48.118;-1.690;2023-04-03T08:11:26;6.70;99.90
12504;DHT22;6316;48.118;-1.690;2023-04-03T08:13:52;6.80;99.90
12504;DHT22;6316;48.118;-1.690;2023-04-03T08:16:20;6.80;99.90
12504;DHT22;6316;48.118;-1.690;2023-04-03T08:18:47;6.90;99.90
12504;DHT22;6316;48.118;-1.690;2023-04-03T08:21:13;6.90;99.90
12504;DHT22;6316;48.118;-1.690;2023-04-03T08:23:40;6.90;99.90
12504;DHT22;6316;48.118;-1.690;2023-04-03T08:26:11;7.00;99.90
12504;DHT22;6316;48.118;-1.690;2023-04-03T08:28:37;7.00;99.90
12504;DHT22;6316;48.118;-1.690;2023-04-03T08:31:06;7.00;99.90
12504;DHT22;6316;48.118;-1.690;2023-04-03T08:33:32;7.00;99.90
12504;DHT22;6316;48.118;-1.690;2023-04-03T08:35:59;7.00;99.90
12504;DHT22;6316;48.118;-1.690;2023-04-03T08:38:25;7.00;99.90
12504;DHT22;6316;48.118;-1.690;2023-04-03T08:46:33;7.10;99.90
12504;DHT22;6316;48.118;-1.690;2023-04-03T08:49:02;7.10;99.90
12504;DHT22;6316;48.118;-1.690;2023-04-03T08:51:28;7.10;99.90
12504;DHT22;6316;48.118;-1.690;2023-04-03T08:54:21;7.20;99.90
12504;DHT22;6316;48.118;-1.690;2023-04-03T08:56:49;7.20;99.90
12504;DHT22;6316;48.118;-1.690;2023-04-03T08:59:21;7.20;99.90
12504;DHT22;6316;48.118;-1.690;2023-04-03T09:01:49;7.30;99.90
12504;DHT22;6316;48.118;-1.690;2023-04-03T09:04:17;7.40;99.90
12504;DHT22;6316;48.118;-1.690;2023-04-03T09:06:46;7.40;99.90
12504;DHT22;6316;48.118;-1.690;2023-04-03T09:09:15;7.40;99.90
12504;DHT22;6316;48.118;-1.690;2023-04-03T09:14:57;7.50;99.90
12504;DHT22;6316;48.118;-1.690;2023-04-03T09:22:58;7.50;99.90
12504;DHT22;6316;48.118;-1.690;2023-04-03T09:25:33;7.50;99.90
12504;DHT22;6316;48.118;-1.690;2023-04-03T09:28:01;7.50;99.90
12504;DHT22;6316;48.118;-1.690;2023-04-03T09:30:28;7.50;99.90
12504;DHT22;6316;48.118;-1.690;2023-04-03T09:32:56;7.50;99.90
12504;DHT22;6316;48.118;-1.690;2023-04-03T09:35:25;7.60;99.90
12504;DHT22;6316;48.118;-1.690;2023-04-03T09:38:00;7.60;99.90
12504;DHT22;6316;48.118;-1.690;2023-04-03T09:43:00;7.70;99.90
12504;DHT22;6316;48.118;-1.690;2023-04-03T09:45:32;7.70;99.90
12504;DHT22;6316;48.118;-1.690;2023-04-03T09:48:25;7.80;99.90
12504;DHT22;6316;48.118;-1.690;2023-04-03T09:53:38;7.80;99.90
12504;DHT22;6316;48.118;-1.690;2023-04-03T09:59:13;7.90;99.90
12504;DHT22;6316;48.118;-1.690;2023-04-03T10:01:39;7.90;99.90
12504;DHT22;6316;48.118;-1.690;2023-04-03T10:04:16;8.00;99.90
12504;DHT22;6316;48.118;-1.690;2023-04-03T10:06:45;8.00;99.90
12504;DHT22;6316;48.118;-1.690;2023-04-03T10:09:24;8.10;99.90
12504;DHT22;6316;48.118;-1.690;2023-04-03T10:14:32;8.20;99.90
12504;DHT22;6316;48.118;-1.690;2023-04-03T10:19:58;8.30;99.90
12504;DHT22;6316;48.118;-1.690;2023-04-03T10:25:20;8.30;99.90
12504;DHT22;6316;48.118;-1.690;2023-04-03T10:27:53;8.30;99.90
12504;DHT22;6316;48.118;-1.690;2023-04-03T10:42:00;8.70;99.90
12504;DHT22;6316;48.118;-1.690;2023-04-03T10:47:05;8.80;99.90
12504;DHT22;6316;48.118;-1.690;2023-04-03T10:52:51;8.90;99.90
12504;DHT22;6316;48.118;-1.690;2023-04-03T10:57:58;9.10;99.90
12504;DHT22;6316;48.118;-1.690;2023-04-03T11:00:36;9.20;99.90
12504;DHT22;6316;48.118;-1.690;2023-04-03T11:03:11;9.40;99.90
12504;DHT22;6316;48.118;-1.690;2023-04-03T11:05:47;9.50;99.90
12504;DHT22;6316;48.118;-1.690;2023-04-03T11:10:48;9.70;99.90
12504;DHT22;6316;48.118;-1.690;2023-04-03T11:13:22;9.80;99.90
12504;DHT22;6316;48.118;-1.690;2023-04-03T11:15:51;9.90;99.90
12504;DHT22;6316;48.118;-1.690;2023-04-03T11:18:41;9.90;99.90
12504;DHT22;6316;48.118;-1.690;2023-04-03T11:21:19;9.90;99.90
12504;DHT22;6316;48.118;-1.690;2023-04-03T11:23:47;9.90;99.90
12504;DHT22;6316;48.118;-1.690;2023-04-03T11:26:17;9.80;99.90
12504;DHT22;6316;48.118;-1.690;2023-04-03T11:28:43;9.70;99.90
12504;DHT22;6316;48.118;-1.690;2023-04-03T11:34:13;9.70;99.90
12504;DHT22;6316;48.118;-1.690;2023-04-03T11:36:49;9.70;99.90
12504;DHT22;6316;48.118;-1.690;2023-04-03T11:39:19;9.70;99.90
12504;DHT22;6316;48.118;-1.690;2023-04-03T11:41:47;9.70;99.90
12504;DHT22;6316;48.118;-1.690;2023-04-03T11:44:35;9.70;99.90
12504;DHT22;6316;48.118;-1.690;2023-04-03T11:47:11;9.70;99.90
12504;DHT22;6316;48.118;-1.690;2023-04-03T11:49:57;9.70;99.90
12504;DHT22;6316;48.118;-1.690;2023-04-03T12:13:38;9.80;99.90
12504;DHT22;6316;48.118;-1.690;2023-04-03T12:16:06;9.90;99.90
12504;DHT22;6316;48.118;-1.690;2023-04-03T12:30:04;10.20;99.90
12504;DHT22;6316;48.118;-1.690;2023-04-03T12:32:46;10.30;99.90
12504;DHT22;6316;48.118;-1.690;2023-04-03T12:35:36;10.30;99.90
12504;DHT22;6316;48.118;-1.690;2023-04-03T12:48:49;10.50;99.90
12504;DHT22;6316;48.118;-1.690;2023-04-03T12:51:30;10.50;99.90
12504;DHT22;6316;48.118;-1.690;2023-04-03T12:54:12;10.50;99.90
12504;DHT22;6316;48.118;-1.690;2023-04-03T12:56:39;10.50;99.90
12504;DHT22;6316;48.118;-1.690;2023-04-03T12:59:27;10.60;99.90
12504;DHT22;6316;48.118;-1.690;2023-04-03T13:02:00;10.60;99.90
12504;DHT22;6316;48.118;-1.690;2023-04-03T13:04:31;10.60;99.90
12504;DHT22;6316;48.118;-1.690;2023-04-03T13:06:58;10.70;99.90
12504;DHT22;6316;48.118;-1.690;2023-04-03T13:09:27;10.80;99.90
12504;DHT22;6316;48.118;-1.690;2023-04-03T13:12:12;10.80;99.90
12504;DHT22;6316;48.118;-1.690;2023-04-03T13:14:39;10.90;99.90
12504;DHT22;6316;48.118;-1.690;2023-04-03T13:17:13;11.00;99.90
12504;DHT22;6316;48.118;-1.690;2023-04-03T13:19:40;11.00;99.90
12504;DHT22;6316;48.118;-1.690;2023-04-03T13:22:29;11.10;99.90
12504;DHT22;6316;48.118;-1.690;2023-04-03T13:24:59;11.10;99.90
12504;DHT22;6316;48.118;-1.690;2023-04-03T13:27:30;11.10;99.90
12504;DHT22;6316;48.118;-1.690;2023-04-03T13:29:58;11.20;99.90
12504;DHT22;6316;48.118;-1.690;2023-04-03T13:32:27;11.20;99.90
12504;DHT22;6316;48.118;-1.690;2023-04-03T13:34:53;11.30;99.90
12504;DHT22;6316;48.118;-1.690;2023-04-03T13:37:31;11.30;99.90
12504;DHT22;6316;48.118;-1.690;2023-04-03T13:42:34;11.50;99.90
12504;DHT22;6316;48.118;-1.690;2023-04-03T13:45:22;11.50;99.90
12504;DHT22;6316;48.118;-1.690;2023-04-03T13:47:51;11.60;99.90
12504;DHT22;6316;48.118;-1.690;2023-04-03T13:50:20;11.60;99.90
12504;DHT22;6316;48.118;-1.690;2023-04-03T13:53:11;11.60;99.90
12504;DHT22;6316;48.118;-1.690;2023-04-03T13:55:50;11.60;99.90
12504;DHT22;6316;48.118;-1.690;2023-04-03T13:58:25;11.60;99.90
12504;DHT22;6316;48.118;-1.690;2023-04-03T14:00:55;11.70;99.90
12504;DHT22;6316;48.118;-1.690;2023-04-03T14:05:53;11.70;99.90
12504;DHT22;6316;48.118;-1.690;2023-04-03T14:08:20;11.80;99.90
12504;DHT22;6316;48.118;-1.690;2023-04-03T14:10:46;11.80;99.90
12504;DHT22;6316;48.118;-1.690;2023-04-03T14:13:17;11.90;99.90
12504;DHT22;6316;48.118;-1.690;2023-04-03T14:15:45;11.90;99.90
12504;DHT22;6316;48.118;-1.690;2023-04-03T14:18:16;11.90;99.90
12504;DHT22;6316;48.118;-1.690;2023-04-03T14:20:43;12.00;99.90
12504;DHT22;6316;48.118;-1.690;2023-04-03T14:23:09;12.00;99.90
12504;DHT22;6316;48.118;-1.690;2023-04-03T14:25:35;12.10;99.90
12504;DHT22;6316;48.118;-1.690;2023-04-03T14:28:06;12.10;99.90
12504;DHT22;6316;48.118;-1.690;2023-04-03T14:30:37;12.10;99.90
12504;DHT22;6316;48.118;-1.690;2023-04-03T14:33:03;12.10;99.90
12504;DHT22;6316;48.118;-1.690;2023-04-03T14:35:29;12.10;99.90
12504;DHT22;6316;48.118;-1.690;2023-04-03T14:37:55;12.10;99.90
12504;DHT22;6316;48.118;-1.690;2023-04-03T14:40:24;12.20;99.90
12504;DHT22;6316;48.118;-1.690;2023-04-03T14:42:51;12.20;99.90
12504;DHT22;6316;48.118;-1.690;2023-04-03T14:45:21;12.30;99.90
12504;DHT22;6316;48.118;-1.690;2023-04-03T14:47:49;12.30;99.90
12504;DHT22;6316;48.118;-1.690;2023-04-03T14:50:19;12.30;99.90
12504;DHT22;6316;48.118;-1.690;2023-04-03T14:52:47;12.30;99.90
12504;DHT22;6316;48.118;-1.690;2023-04-03T14:55:18;12.40;99.90
12504;DHT22;6316;48.118;-1.690;2023-04-03T14:57:44;12.40;99.90
12504;DHT22;6316;48.118;-1.690;2023-04-03T15:00:14;12.40;99.90
12504;DHT22;6316;48.118;-1.690;2023-04-03T15:02:40;12.40;99.90
12504;DHT22;6316;48.118;-1.690;2023-04-03T15:05:09;12.50;99.90
12504;DHT22;6316;48.118;-1.690;2023-04-03T15:07:40;12.50;99.90
12504;DHT22;6316;48.118;-1.690;2023-04-03T15:10:21;12.50;99.90
12504;DHT22;6316;48.118;-1.690;2023-04-03T15:12:47;12.60;99.90
12504;DHT22;6316;48.118;-1.690;2023-04-03T15:15:15;12.60;99.90
12504;DHT22;6316;48.118;-1.690;2023-04-03T15:17:42;12.60;99.90
12504;DHT22;6316;48.118;-1.690;2023-04-03T15:20:17;12.50;99.90
12504;DHT22;6316;48.118;-1.690;2023-04-03T15:22:43;12.60;99.90
12504;DHT22;6316;48.118;-1.690;2023-04-03T15:25:09;12.60;99.90
12504;DHT22;6316;48.118;-1.690;2023-04-03T15:27:36;12.50;99.90
12504;DHT22;6316;48.118;-1.690;2023-04-03T15:30:04;12.60;99.90
12504;DHT22;6316;48.118;-1.690;2023-04-03T15:32:30;12.60;99.90
12504;DHT22;6316;48.118;-1.690;2023-04-03T15:34:56;12.50;99.90
12504;DHT22;6316;48.118;-1.690;2023-04-03T15:37:22;12.60;99.90
12504;DHT22;6316;48.118;-1.690;2023-04-03T15:39:47;12.60;99.90
12504;DHT22;6316;48.118;-1.690;2023-04-03T15:42:13;12.60;99.90
12504;DHT22;6316;48.118;-1.690;2023-04-03T15:44:38;12.60;99.90
12504;DHT22;6316;48.118;-1.690;2023-04-03T15:47:04;12.60;99.90
12504;DHT22;6316;48.118;-1.690;2023-04-03T15:49:33;12.70;99.90
12504;DHT22;6316;48.118;-1.690;2023-04-03T15:51:59;12.70;99.90
12504;DHT22;6316;48.118;-1.690;2023-04-03T15:54:26;12.70;99.90
12504;DHT22;6316;48.118;-1.690;2023-04-03T15:56:52;12.70;99.90
12504;DHT22;6316;48.118;-1.690;2023-04-03T15:59:18;12.70;99.90
12504;DHT22;6316;48.118;-1.690;2023-04-03T16:01:44;12.70;99.90
12504;DHT22;6316;48.118;-1.690;2023-04-03T16:04:10;12.70;99.90
12504;DHT22;6316;48.118;-1.690;2023-04-03T16:06:37;12.70;99.90
12504;DHT22;6316;48.118;-1.690;2023-04-03T16:09:03;12.80;99.90
12504;DHT22;6316;48.118;-1.690;2023-04-03T16:11:29;12.80;99.90
12504;DHT22;6316;48.118;-1.690;2023-04-03T16:13:55;12.80;99.90
12504;DHT22;6316;48.118;-1.690;2023-04-03T16:16:21;12.80;99.90
12504;DHT22;6316;48.118;-1.690;2023-04-03T16:18:47;12.80;99.90
12504;DHT22;6316;48.118;-1.690;2023-04-03T16:21:14;12.80;99.90
12504;DHT22;6316;48.118;-1.690;2023-04-03T16:23:41;12.80;99.90
12504;DHT22;6316;48.118;-1.690;2023-04-03T16:26:07;12.80;99.90
12504;DHT22;6316;48.118;-1.690;2023-04-03T16:28:32;12.80;99.90
12504;DHT22;6316;48.118;-1.690;2023-04-03T16:30:59;12.80;99.90
12504;DHT22;6316;48.118;-1.690;2023-04-03T16:33:25;12.80;99.90
12504;DHT22;6316;48.118;-1.690;2023-04-03T16:35:51;12.80;99.90
12504;DHT22;6316;48.118;-1.690;2023-04-03T16:38:17;12.80;99.90
12504;DHT22;6316;48.118;-1.690;2023-04-03T16:40:45;12.80;99.90
12504;DHT22;6316;48.118;-1.690;2023-04-03T16:43:10;12.80;99.90
12504;DHT22;6316;48.118;-1.690;2023-04-03T16:45:36;12.80;99.90
12504;DHT22;6316;48.118;-1.690;2023-04-03T16:48:02;12.80;99.90
12504;DHT22;6316;48.118;-1.690;2023-04-03T16:50:28;12.80;99.90
12504;DHT22;6316;48.118;-1.690;2023-04-03T16:52:54;12.80;99.90
12504;DHT22;6316;48.118;-1.690;2023-04-03T16:55:19;12.80;99.90
12504;DHT22;6316;48.118;-1.690;2023-04-03T16:57:46;12.80;99.90
12504;DHT22;6316;48.118;-1.690;2023-04-03T17:00:12;12.80;99.90
12504;DHT22;6316;48.118;-1.690;2023-04-03T17:02:39;12.80;99.90
12504;DHT22;6316;48.118;-1.690;2023-04-03T17:05:05;12.70;99.90
12504;DHT22;6316;48.118;-1.690;2023-04-03T17:07:31;12.70;99.90
12504;DHT22;6316;48.118;-1.690;2023-04-03T17:09:57;12.70;99.90
12504;DHT22;6316;48.118;-1.690;2023-04-03T17:12:23;12.70;99.90
12504;DHT22;6316;48.118;-1.690;2023-04-03T17:14:49;12.70;99.90
12504;DHT22;6316;48.118;-1.690;2023-04-03T17:17:15;12.70;99.90
12504;DHT22;6316;48.118;-1.690;2023-04-03T17:19:43;12.70;99.90
12504;DHT22;6316;48.118;-1.690;2023-04-03T17:22:09;12.70;99.90
12504;DHT22;6316;48.118;-1.690;2023-04-03T17:24:36;12.70;99.90
12504;DHT22;6316;48.118;-1.690;2023-04-03T17:27:02;12.70;99.90
12504;DHT22;6316;48.118;-1.690;2023-04-03T17:29:28;12.60;99.90
12504;DHT22;6316;48.118;-1.690;2023-04-03T17:31:53;12.60;99.90
12504;DHT22;6316;48.118;-1.690;2023-04-03T17:34:19;12.60;99.90
12504;DHT22;6316;48.118;-1.690;2023-04-03T17:36:45;12.60;99.90
12504;DHT22;6316;48.118;-1.690;2023-04-03T17:39:10;12.60;99.90